sensor_id;sensor_type;location;lat;lon;timestamp;pressure;altitude;pressure_sealevel;temperature;humidity
62111;BME280;48102;47.526;19.072;2022-09-19T03:43:19;99910.97;;;9.52;99.57
62111;BME280;48102;47.526;19.072;2022-09-19T03:46:23;99912.28;;;9.43;100.00
62111;BME280;48102;47.526;19.072;2022-09-19T03:49:31;99917.31;;;9.48;100.00
62111;BME280;48102;47.526;19.072;2022-09-19T03:52:34;99923.78;;;9.58;100.00
62111;BME280;48102;47.526;19.072;2022-09-19T03:55:37;99933.41;;;9.59;99.88
62111;BME280;48102;47.526;19.072;2022-09-19T03:58:41;99937.72;;;9.60;100.00
62111;BME280;48102;47.526;19.072;2022-09-19T04:01:45;99942.50;;;9.69;100.00
62111;BME280;48102;47.526;19.072;2022-09-19T04:04:48;99952.22;;;9.85;100.00
62111;BME280;48102;47.526;19.072;2022-09-19T04:07:51;99954.31;;;10.11;99.13
62111;BME280;48102;47.526;19.072;2022-09-19T04:10:56;99957.34;;;10.37;99.66
62111;BME280;48102;47.526;19.072;2022-09-19T04:13:58;99951.72;;;10.43;99.06
62111;BME280;48102;47.526;19.072;2022-09-19T04:17:02;99958.34;;;10.50;99.65
62111;BME280;48102;47.526;19.072;2022-09-19T04:20:30;99967.94;;;10.51;98.88
62111;BME280;48102;47.526;19.072;2022-09-19T04:23:34;99964.28;;;10.38;100.00
62111;BME280;48102;47.526;19.072;2022-09-19T04:26:38;99965.91;;;10.40;100.00
62111;BME280;48102;47.526;19.072;2022-09-19T04:29:40;99959.88;;;10.38;100.00
62111;BME280;48102;47.526;19.072;2022-09-19T04:32:43;99955.13;;;10.29;100.00
62111;BME280;48102;47.526;19.072;2022-09-19T04:35:46;99959.53;;;10.28;100.00
62111;BME280;48102;47.526;19.072;2022-09-19T04:38:49;99960.44;;;10.27;100.00
62111;BME280;48102;47.526;19.072;2022-09-19T04:41:56;99950.78;;;10.28;100.00
62111;BME280;48102;47.526;19.072;2022-09-19T04:44:58;99951.38;;;10.33;100.00
62111;BME280;48102;47.526;19.072;2022-09-19T04:48:03;99957.41;;;10.35;100.00
62111;BME280;48102;47.526;19.072;2022-09-19T04:51:10;99955.03;;;10.46;100.00
62111;BME280;48102;47.526;19.072;2022-09-19T04:54:14;99959.25;;;10.49;100.00
62111;BME280;48102;47.526;19.072;2022-09-19T04:57:18;99963.28;;;10.56;100.00
62111;BME280;48102;47.526;19.072;2022-09-19T05:00:22;99959.28;;;10.65;100.00
62111;BME280;48102;47.526;19.072;2022-09-19T05:03:44;99959.78;;;10.71;100.00
62111;BME280;48102;47.526;19.072;2022-09-19T05:06:47;99963.75;;;10.78;100.00
62111;BME280;48102;47.526;19.072;2022-09-19T05:09:52;99957.22;;;10.86;100.00
62111;BME280;48102;47.526;19.072;2022-09-19T05:12:57;99968.34;;;10.91;100.00
62111;BME280;48102;47.526;19.072;2022-09-19T05:16:00;99969.38;;;10.88;100.00
62111;BME280;48102;47.526;19.072;2022-09-19T05:19:04;99976.19;;;10.76;100.00
62111;BME280;48102;47.526;19.072;2022-09-19T05:22:07;99985.44;;;10.84;100.00
62111;BME280;48102;47.526;19.072;2022-09-19T05:25:10;99984.50;;;10.69;100.00
62111;BME280;48102;47.526;19.072;2022-09-19T05:28:15;99994.78;;;10.58;100.00
62111;BME280;48102;47.526;19.072;2022-09-19T05:31:18;99996.91;;;10.35;100.00
62111;BME280;48102;47.526;19.072;2022-09-19T05:34:22;100001.41;;;10.33;100.00
62111;BME280;48102;47.526;19.072;2022-09-19T05:37:26;100007.78;;;10.29;100.00
62111;BME280;48102;47.526;19.072;2022-09-19T05:40:30;100012.12;;;10.30;100.00
62111;BME280;48102;47.526;19.072;2022-09-19T05:43:33;100010.94;;;10.36;100.00
62111;BME280;48102;47.526;19.072;2022-09-19T05:46:36;100001.50;;;10.32;100.00
62111;BME280;48102;47.526;19.072;2022-09-19T05:49:39;100011.13;;;10.15;100.00
62111;BME280;48102;47.526;19.072;2022-09-19T05:52:42;100005.97;;;9.96;100.00
62111;BME280;48102;47.526;19.072;2022-09-19T05:56:05;100010.47;;;9.94;100.00
62111;BME280;48102;47.526;19.072;2022-09-19T05:59:11;100012.22;;;10.11;100.00
62111;BME280;48102;47.526;19.072;2022-09-19T06:02:15;100012.12;;;10.30;100.00
62111;BME280;48102;47.526;19.072;2022-09-19T06:05:25;100022.50;;;10.33;100.00
62111;BME280;48102;47.526;19.072;2022-09-19T06:08:27;100026.38;;;10.26;100.00
62111;BME280;48102;47.526;19.072;2022-09-19T06:11:31;100029.28;;;10.04;100.00
62111;BME280;48102;47.526;19.072;2022-09-19T06:14:34;100037.28;;;9.85;100.00
62111;BME280;48102;47.526;19.072;2022-09-19T06:17:41;100048.19;;;9.77;100.00
62111;BME280;48102;47.526;19.072;2022-09-19T06:20:44;100034.72;;;9.66;100.00
62111;BME280;48102;47.526;19.072;2022-09-19T06:23:50;100035.34;;;9.71;100.00
62111;BME280;48102;47.526;19.072;2022-09-19T06:26:52;100030.53;;;9.79;100.00
62111;BME280;48102;47.526;19.072;2022-09-19T06:29:57;100031.72;;;9.74;100.00
62111;BME280;48102;47.526;19.072;2022-09-19T06:33:04;100033.59;;;9.72;100.00
62111;BME280;48102;47.526;19.072;2022-09-19T06:36:08;100027.37;;;9.73;100.00
62111;BME280;48102;47.526;19.072;2022-09-19T06:39:12;100034.50;;;9.71;100.00
62111;BME280;48102;47.526;19.072;2022-09-19T06:42:15;100037.59;;;9.79;100.00
62111;BME280;48102;47.526;19.072;2022-09-19T06:45:21;100043.56;;;9.65;100.00
62111;BME280;48102;47.526;19.072;2022-09-19T06:48:26;100043.78;;;9.61;100.00
62111;BME280;48102;47.526;19.072;2022-09-19T06:51:28;100048.97;;;9.62;100.00
62111;BME280;48102;47.526;19.072;2022-09-19T06:54:31;100042.56;;;9.68;100.00
62111;BME280;48102;47.526;19.072;2022-09-19T06:57:34;100047.41;;;9.58;100.00
62111;BME280;48102;47.526;19.072;2022-09-19T07:00:37;100053.47;;;9.60;100.00
62111;BME280;48102;47.526;19.072;2022-09-19T07:03:41;100067.94;;;9.51;100.00
62111;BME280;48102;47.526;19.072;2022-09-19T07:06:46;100060.31;;;9.45;100.00
62111;BME280;48102;47.526;19.072;2022-09-19T07:09:49;100066.84;;;9.38;100.00
62111;BME280;48102;47.526;19.072;2022-09-19T07:12:57;100056.53;;;9.34;100.00
62111;BME280;48102;47.526;19.072;2022-09-19T07:16:04;100065.59;;;9.45;100.00
62111;BME280;48102;47.526;19.072;2022-09-19T07:19:07;100069.47;;;9.55;100.00
62111;BME280;48102;47.526;19.072;2022-09-19T07:22:10;100074.50;;;9.60;100.00
62111;BME280;48102;47.526;19.072;2022-09-19T07:25:16;100076.06;;;9.82;100.00
62111;BME280;48102;47.526;19.072;2022-09-19T07:28:22;100069.31;;;9.93;100.00
62111;BME280;48102;47.526;19.072;2022-09-19T07:31:29;100064.56;;;10.00;100.00
62111;BME280;48102;47.526;19.072;2022-09-19T07:34:31;100059.12;;;10.20;100.00
62111;BME280;48102;47.526;19.072;2022-09-19T07:37:37;100063.47;;;10.54;100.00
62111;BME280;48102;47.526;19.072;2022-09-19T07:40:44;100064.88;;;10.93;100.00
62111;BME280;48102;47.526;19.072;2022-09-19T07:43:48;100067.91;;;10.70;100.00
62111;BME280;48102;47.526;19.072;2022-09-19T07:46:51;100064.50;;;10.68;100.00
62111;BME280;48102;47.526;19.072;2022-09-19T07:50:17;100068.41;;;10.92;100.00
62111;BME280;48102;47.526;19.072;2022-09-19T07:53:22;100064.41;;;11.17;100.00
62111;BME280;48102;47.526;19.072;2022-09-19T07:56:25;100068.91;;;11.61;100.00
62111;BME280;48102;47.526;19.072;2022-09-19T07:59:28;100056.94;;;11.85;100.00
62111;BME280;48102;47.526;19.072;2022-09-19T08:02:31;100071.91;;;12.15;100.00
62111;BME280;48102;47.526;19.072;2022-09-19T08:05:37;100068.50;;;12.27;100.00
62111;BME280;48102;47.526;19.072;2022-09-19T08:08:40;100073.56;;;12.87;100.00
62111;BME280;48102;47.526;19.072;2022-09-19T08:11:44;100075.03;;;13.05;92.64
62111;BME280;48102;47.526;19.072;2022-09-19T08:14:46;100074.22;;;12.76;92.71
62111;BME280;48102;47.526;19.072;2022-09-19T08:18:03;100062.16;;;12.87;86.58
62111;BME280;48102;47.526;19.072;2022-09-19T08:21:07;100073.19;;;13.35;89.43
62111;BME280;48102;47.526;19.072;2022-09-19T08:24:11;100077.56;;;13.07;88.69
62111;BME280;48102;47.526;19.072;2022-09-19T08:27:14;100078.28;;;12.96;86.49
62111;BME280;48102;47.526;19.072;2022-09-19T08:30:20;100081.66;;;12.98;91.81
62111;BME280;48102;47.526;19.072;2022-09-19T08:33:23;100090.12;;;13.03;85.60
62111;BME280;48102;47.526;19.072;2022-09-19T08:36:33;100102.56;;;12.89;84.21
62111;BME280;48102;47.526;19.072;2022-09-19T08:39:36;100098.66;;;13.09;81.67
62111;BME280;48102;47.526;19.072;2022-09-19T08:43:12;100102.09;;;12.68;74.99
62111;BME280;48102;47.526;19.072;2022-09-19T08:52:43;100128.13;;;13.02;73.98
62111;BME280;48102;47.526;19.072;2022-09-19T08:55:48;100124.38;;;13.34;76.22
62111;BME280;48102;47.526;19.072;2022-09-19T08:59:01;100130.25;;;13.66;68.12
62111;BME280;48102;47.526;19.072;2022-09-19T09:05:54;100132.97;;;13.91;65.75
62111;BME280;48102;47.526;19.072;2022-09-19T09:09:25;100137.06;;;13.83;67.71
62111;BME280;48102;47.526;19.072;2022-09-19T09:16:20;100144.88;;;13.44;65.44
62111;BME280;48102;47.526;19.072;2022-09-19T09:22:50;100136.22;;;13.55;71.57
62111;BME280;48102;47.526;19.072;2022-09-19T09:26:01;100138.03;;;13.94;65.70
62111;BME280;48102;47.526;19.072;2022-09-19T09:32:46;100144.78;;;14.76;60.92
62111;BME280;48102;47.526;19.072;2022-09-19T09:35:59;100156.75;;;15.08;63.69
62111;BME280;48102;47.526;19.072;2022-09-19T09:39:13;100165.41;;;15.22;59.21
62111;BME280;48102;47.526;19.072;2022-09-19T09:42:22;100166.13;;;15.37;59.04
62111;BME280;48102;47.526;19.072;2022-09-19T09:48:41;100169.37;;;15.77;57.08
62111;BME280;48102;47.526;19.072;2022-09-19T09:51:55;100164.38;;;15.49;57.98
62111;BME280;48102;47.526;19.072;2022-09-19T09:55:37;100158.16;;;14.75;60.52
62111;BME280;48102;47.526;19.072;2022-09-19T10:03:10;100165.59;;;14.70;61.31
62111;BME280;48102;47.526;19.072;2022-09-19T10:06:34;100155.19;;;14.92;56.18
62111;BME280;48102;47.526;19.072;2022-09-19T10:09:58;100149.56;;;15.34;56.57
62111;BME280;48102;47.526;19.072;2022-09-19T10:13:12;100150.22;;;15.24;57.81
62111;BME280;48102;47.526;19.072;2022-09-19T10:16:19;100149.78;;;14.81;58.11
62111;BME280;48102;47.526;19.072;2022-09-19T10:19:28;100161.34;;;14.54;61.40
62111;BME280;48102;47.526;19.072;2022-09-19T10:22:32;100170.72;;;14.60;62.87
62111;BME280;48102;47.526;19.072;2022-09-19T10:25:35;100170.62;;;14.22;67.45
62111;BME280;48102;47.526;19.072;2022-09-19T10:28:42;100175.81;;;14.23;75.07
62111;BME280;48102;47.526;19.072;2022-09-19T10:31:47;100163.94;;;14.29;66.38
62111;BME280;48102;47.526;19.072;2022-09-19T10:34:51;100172.28;;;14.50;67.55
62111;BME280;48102;47.526;19.072;2022-09-19T10:38:07;100157.81;;;14.28;69.04
62111;BME280;48102;47.526;19.072;2022-09-19T10:41:18;100158.34;;;14.21;72.41
62111;BME280;48102;47.526;19.072;2022-09-19T10:44:24;100165.16;;;14.50;70.93
62111;BME280;48102;47.526;19.072;2022-09-19T10:47:28;100163.56;;;14.99;66.12
62111;BME280;48102;47.526;19.072;2022-09-19T10:50:41;100160.34;;;15.43;63.14
62111;BME280;48102;47.526;19.072;2022-09-19T10:53:52;100165.63;;;15.56;60.95
62111;BME280;48102;47.526;19.072;2022-09-19T10:56:57;100157.97;;;15.64;59.60
62111;BME280;48102;47.526;19.072;2022-09-19T11:00:02;100150.72;;;15.90;61.39
62111;BME280;48102;47.526;19.072;2022-09-19T11:03:17;100148.31;;;16.34;60.75
62111;BME280;48102;47.526;19.072;2022-09-19T11:06:26;100147.19;;;16.36;59.62
62111;BME280;48102;47.526;19.072;2022-09-19T11:09:36;100137.03;;;15.60;59.41
62111;BME280;48102;47.526;19.072;2022-09-19T11:12:40;100163.09;;;15.18;65.18
62111;BME280;48102;47.526;19.072;2022-09-19T11:25:25;100194.22;;;13.72;80.81
62111;BME280;48102;47.526;19.072;2022-09-19T11:36:24;100210.47;;;12.53;83.02
62111;BME280;48102;47.526;19.072;2022-09-19T11:43:23;100206.75;;;13.00;80.69
62111;BME280;48102;47.526;19.072;2022-09-19T11:50:17;100219.50;;;14.83;71.30
62111;BME280;48102;47.526;19.072;2022-09-19T12:00:21;100220.97;;;14.74;69.95
62111;BME280;48102;47.526;19.072;2022-09-19T12:10:40;100222.34;;;14.54;70.81
62111;BME280;48102;47.526;19.072;2022-09-19T12:13:53;100220.50;;;14.42;68.10
62111;BME280;48102;47.526;19.072;2022-09-19T12:17:08;100226.47;;;14.59;66.24
62111;BME280;48102;47.526;19.072;2022-09-19T12:20:21;100233.66;;;14.44;61.67
62111;BME280;48102;47.526;19.072;2022-09-19T12:23:46;100232.03;;;14.41;61.83
62111;BME280;48102;47.526;19.072;2022-09-19T12:27:14;100229.12;;;14.19;63.93
62111;BME280;48102;47.526;19.072;2022-09-19T12:30:21;100232.56;;;13.94;65.42
62111;BME280;48102;47.526;19.072;2022-09-19T12:33:44;100229.91;;;13.67;69.38
62111;BME280;48102;47.526;19.072;2022-09-19T12:36:55;100225.53;;;13.24;72.51
62111;BME280;48102;47.526;19.072;2022-09-19T12:40:14;100234.69;;;13.33;71.50
62111;BME280;48102;47.526;19.072;2022-09-19T12:43:34;100230.91;;;13.09;70.33
62111;BME280;48102;47.526;19.072;2022-09-19T12:46:57;100227.72;;;13.73;70.00
62111;BME280;48102;47.526;19.072;2022-09-19T12:50:19;100233.37;;;15.12;64.35
62111;BME280;48102;47.526;19.072;2022-09-19T12:53:29;100229.41;;;16.28;60.97
62111;BME280;48102;47.526;19.072;2022-09-19T12:56:42;100227.50;;;16.99;59.32
62111;BME280;48102;47.526;19.072;2022-09-19T12:59:48;100223.94;;;17.66;57.43
62111;BME280;48102;47.526;19.072;2022-09-19T13:03:07;100232.56;;;21.03;45.40
62111;BME280;48102;47.526;19.072;2022-09-19T13:06:16;100216.13;;;21.53;42.53
62111;BME280;48102;47.526;19.072;2022-09-19T13:09:25;100219.00;;;24.61;36.96
62111;BME280;48102;47.526;19.072;2022-09-19T13:18:55;100217.84;;;26.81;30.83
62111;BME280;48102;47.526;19.072;2022-09-19T13:22:16;100220.09;;;29.36;30.40
62111;BME280;48102;47.526;19.072;2022-09-19T13:25:20;100201.72;;;29.38;26.42
62111;BME280;48102;47.526;19.072;2022-09-19T13:28:29;100202.84;;;30.18;27.04
62111;BME280;48102;47.526;19.072;2022-09-19T13:38:36;100208.59;;;35.89;21.41
62111;BME280;48102;47.526;19.072;2022-09-19T13:41:44;100212.97;;;36.86;19.41
62111;BME280;48102;47.526;19.072;2022-09-19T13:45:00;100214.91;;;37.47;18.97
62111;BME280;48102;47.526;19.072;2022-09-19T13:48:11;100207.66;;;38.44;16.84
62111;BME280;48102;47.526;19.072;2022-09-19T13:51:37;100205.97;;;39.22;17.57
62111;BME280;48102;47.526;19.072;2022-09-19T14:01:37;100191.00;;;24.86;30.65
62111;BME280;48102;47.526;19.072;2022-09-19T14:08:30;100191.12;;;18.29;43.30
62111;BME280;48102;47.526;19.072;2022-09-19T14:11:57;100198.72;;;16.93;47.42
62111;BME280;48102;47.526;19.072;2022-09-19T14:15:01;100208.66;;;16.55;49.33
62111;BME280;48102;47.526;19.072;2022-09-19T14:24:43;100223.63;;;15.49;53.20
62111;BME280;48102;47.526;19.072;2022-09-19T14:31:15;100227.84;;;14.12;68.52
62111;BME280;48102;47.526;19.072;2022-09-19T14:38:29;100208.22;;;14.01;79.73
62111;BME280;48102;47.526;19.072;2022-09-19T14:48:43;100196.09;;;15.63;71.11
62111;BME280;48102;47.526;19.072;2022-09-19T14:55:14;100193.50;;;15.74;65.31
62111;BME280;48102;47.526;19.072;2022-09-19T14:58:28;100191.88;;;15.48;72.21
62111;BME280;48102;47.526;19.072;2022-09-19T15:01:33;100195.34;;;15.37;75.69
62111;BME280;48102;47.526;19.072;2022-09-19T15:04:39;100196.94;;;16.12;69.58
62111;BME280;48102;47.526;19.072;2022-09-19T15:07:42;100205.78;;;17.60;61.09
62111;BME280;48102;47.526;19.072;2022-09-19T15:10:45;100202.00;;;18.38;59.52
62111;BME280;48102;47.526;19.072;2022-09-19T15:13:50;100197.84;;;20.45;49.42
62111;BME280;48102;47.526;19.072;2022-09-19T15:17:35;100194.25;;;22.11;45.19
62111;BME280;48102;47.526;19.072;2022-09-19T15:20:36;100197.03;;;20.35;49.56
62111;BME280;48102;47.526;19.072;2022-09-19T15:23:40;100189.16;;;18.11;54.93
62111;BME280;48102;47.526;19.072;2022-09-19T15:26:46;100202.56;;;17.45;58.19
